sensor_id;sensor_type;location;lat;lon;timestamp;P1;durP1;ratioP1;P2;durP2;ratioP2
61458;SDS011;47324;48.760;9.156;2023-09-12T00:01:33;10.15;;;6.68;;
61458;SDS011;47324;48.760;9.156;2023-09-12T00:04:18;13.98;;;7.20;;
61458;SDS011;47324;48.760;9.156;2023-09-12T00:07:02;13.38;;;7.40;;
61458;SDS011;47324;48.760;9.156;2023-09-12T00:09:47;9.43;;;6.72;;
61458;SDS011;47324;48.760;9.156;2023-09-12T00:12:31;13.00;;;7.47;;
61458;SDS011;47324;48.760;9.156;2023-09-12T00:15:15;10.10;;;6.43;;
61458;SDS011;47324;48.760;9.156;2023-09-12T00:17:59;12.32;;;7.05;;
61458;SDS011;47324;48.760;9.156;2023-09-12T00:20:43;9.25;;;6.47;;
61458;SDS011;47324;48.760;9.156;2023-09-12T00:23:27;12.77;;;6.05;;
61458;SDS011;47324;48.760;9.156;2023-09-12T00:26:11;13.70;;;6.25;;
61458;SDS011;47324;48.760;9.156;2023-09-12T00:28:56;10.63;;;5.88;;
61458;SDS011;47324;48.760;9.156;2023-09-12T00:31:40;9.02;;;5.80;;
61458;SDS011;47324;48.760;9.156;2023-09-12T00:34:25;12.07;;;7.35;;
61458;SDS011;47324;48.760;9.156;2023-09-12T00:37:09;12.02;;;6.25;;
61458;SDS011;47324;48.760;9.156;2023-09-12T00:39:54;17.42;;;7.35;;
61458;SDS011;47324;48.760;9.156;2023-09-12T00:42:39;10.07;;;7.28;;
61458;SDS011;47324;48.760;9.156;2023-09-12T00:45:23;12.00;;;6.65;;
61458;SDS011;47324;48.760;9.156;2023-09-12T00:48:07;11.52;;;7.88;;
61458;SDS011;47324;48.760;9.156;2023-09-12T00:50:52;9.73;;;6.63;;
61458;SDS011;47324;48.760;9.156;2023-09-12T00:53:37;11.82;;;6.20;;
61458;SDS011;47324;48.760;9.156;2023-09-12T00:56:22;12.45;;;6.63;;
61458;SDS011;47324;48.760;9.156;2023-09-12T00:59:06;10.50;;;6.60;;
61458;SDS011;47324;48.760;9.156;2023-09-12T01:01:50;9.52;;;5.97;;
61458;SDS011;47324;48.760;9.156;2023-09-12T01:04:36;11.43;;;6.65;;
61458;SDS011;47324;48.760;9.156;2023-09-12T01:07:21;10.70;;;6.65;;
61458;SDS011;47324;48.760;9.156;2023-09-12T01:10:06;9.30;;;5.75;;
61458;SDS011;47324;48.760;9.156;2023-09-12T01:12:51;10.90;;;6.63;;
61458;SDS011;47324;48.760;9.156;2023-09-12T01:15:37;11.45;;;6.32;;
61458;SDS011;47324;48.760;9.156;2023-09-12T01:18:22;12.63;;;7.45;;
61458;SDS011;47324;48.760;9.156;2023-09-12T01:29:44;9.90;;;6.32;;
61458;SDS011;47324;48.760;9.156;2023-09-12T01:32:32;17.48;;;7.43;;
61458;SDS011;47324;48.760;9.156;2023-09-12T01:35:16;9.13;;;6.60;;
61458;SDS011;47324;48.760;9.156;2023-09-12T01:38:02;10.32;;;6.22;;
61458;SDS011;47324;48.760;9.156;2023-09-12T01:40:51;11.68;;;7.22;;
61458;SDS011;47324;48.760;9.156;2023-09-12T01:43:38;9.95;;;6.82;;
61458;SDS011;47324;48.760;9.156;2023-09-12T01:46:23;12.63;;;7.22;;
61458;SDS011;47324;48.760;9.156;2023-09-12T01:49:10;11.27;;;6.90;;
61458;SDS011;47324;48.760;9.156;2023-09-12T01:51:56;12.75;;;6.90;;
61458;SDS011;47324;48.760;9.156;2023-09-12T01:54:43;10.35;;;7.00;;
61458;SDS011;47324;48.760;9.156;2023-09-12T01:57:28;14.98;;;7.20;;
61458;SDS011;47324;48.760;9.156;2023-09-12T02:00:13;12.23;;;6.88;;
61458;SDS011;47324;48.760;9.156;2023-09-12T02:02:57;13.63;;;7.03;;
61458;SDS011;47324;48.760;9.156;2023-09-12T02:05:41;9.45;;;6.80;;
61458;SDS011;47324;48.760;9.156;2023-09-12T02:08:26;11.52;;;6.97;;
61458;SDS011;47324;48.760;9.156;2023-09-12T02:11:10;11.43;;;7.45;;
61458;SDS011;47324;48.760;9.156;2023-09-12T02:13:54;12.02;;;7.13;;
61458;SDS011;47324;48.760;9.156;2023-09-12T02:16:39;10.52;;;6.57;;
61458;SDS011;47324;48.760;9.156;2023-09-12T02:19:23;9.90;;;6.38;;
61458;SDS011;47324;48.760;9.156;2023-09-12T02:22:08;10.10;;;6.88;;
61458;SDS011;47324;48.760;9.156;2023-09-12T02:24:52;14.00;;;6.60;;
61458;SDS011;47324;48.760;9.156;2023-09-12T02:27:37;11.65;;;5.95;;
61458;SDS011;47324;48.760;9.156;2023-09-12T02:30:21;13.05;;;6.50;;
61458;SDS011;47324;48.760;9.156;2023-09-12T02:33:05;13.98;;;7.57;;
61458;SDS011;47324;48.760;9.156;2023-09-12T02:35:49;14.20;;;6.60;;
61458;SDS011;47324;48.760;9.156;2023-09-12T02:38:34;10.73;;;7.00;;
61458;SDS011;47324;48.760;9.156;2023-09-12T02:41:18;14.20;;;6.88;;
61458;SDS011;47324;48.760;9.156;2023-09-12T02:44:03;9.30;;;6.47;;
61458;SDS011;47324;48.760;9.156;2023-09-12T02:46:47;9.10;;;6.50;;
61458;SDS011;47324;48.760;9.156;2023-09-12T02:49:33;10.30;;;6.45;;
61458;SDS011;47324;48.760;9.156;2023-09-12T02:52:18;9.70;;;6.25;;
61458;SDS011;47324;48.760;9.156;2023-09-12T02:55:03;14.27;;;7.35;;
61458;SDS011;47324;48.760;9.156;2023-09-12T02:57:49;12.48;;;7.05;;
61458;SDS011;47324;48.760;9.156;2023-09-12T03:00:37;10.90;;;6.45;;
61458;SDS011;47324;48.760;9.156;2023-09-12T03:03:21;10.82;;;6.82;;
61458;SDS011;47324;48.760;9.156;2023-09-12T03:06:06;11.18;;;7.28;;
61458;SDS011;47324;48.760;9.156;2023-09-12T03:08:50;11.90;;;6.93;;
61458;SDS011;47324;48.760;9.156;2023-09-12T03:11:35;9.05;;;6.65;;
61458;SDS011;47324;48.760;9.156;2023-09-12T03:14:19;11.07;;;7.38;;
61458;SDS011;47324;48.760;9.156;2023-09-12T03:17:03;16.23;;;7.47;;
61458;SDS011;47324;48.760;9.156;2023-09-12T03:19:48;9.77;;;6.22;;
61458;SDS011;47324;48.760;9.156;2023-09-12T03:22:32;13.63;;;7.03;;
61458;SDS011;47324;48.760;9.156;2023-09-12T03:25:21;11.77;;;6.85;;
61458;SDS011;47324;48.760;9.156;2023-09-12T03:28:05;11.10;;;7.32;;
61458;SDS011;47324;48.760;9.156;2023-09-12T03:30:50;10.38;;;6.80;;
61458;SDS011;47324;48.760;9.156;2023-09-12T03:33:34;12.75;;;6.25;;
61458;SDS011;47324;48.760;9.156;2023-09-12T03:36:18;10.65;;;6.50;;
61458;SDS011;47324;48.760;9.156;2023-09-12T03:39:03;10.40;;;6.72;;
61458;SDS011;47324;48.760;9.156;2023-09-12T03:41:50;9.13;;;6.13;;
61458;SDS011;47324;48.760;9.156;2023-09-12T03:44:34;13.68;;;6.95;;
61458;SDS011;47324;48.760;9.156;2023-09-12T03:47:18;11.02;;;6.32;;
61458;SDS011;47324;48.760;9.156;2023-09-12T03:50:03;13.40;;;6.40;;
61458;SDS011;47324;48.760;9.156;2023-09-12T03:52:47;15.00;;;6.53;;
61458;SDS011;47324;48.760;9.156;2023-09-12T03:55:32;10.68;;;6.38;;
61458;SDS011;47324;48.760;9.156;2023-09-12T03:58:17;9.38;;;7.03;;
61458;SDS011;47324;48.760;9.156;2023-09-12T04:01:01;9.13;;;6.35;;
61458;SDS011;47324;48.760;9.156;2023-09-12T04:03:45;13.23;;;6.60;;
61458;SDS011;47324;48.760;9.156;2023-09-12T04:06:31;13.10;;;7.72;;
61458;SDS011;47324;48.760;9.156;2023-09-12T04:09:16;12.10;;;6.90;;
61458;SDS011;47324;48.760;9.156;2023-09-12T04:12:01;18.77;;;7.70;;
61458;SDS011;47324;48.760;9.156;2023-09-12T04:14:46;10.95;;;6.85;;
61458;SDS011;47324;48.760;9.156;2023-09-12T04:17:31;14.63;;;6.50;;
61458;SDS011;47324;48.760;9.156;2023-09-12T04:20:15;12.52;;;7.65;;
61458;SDS011;47324;48.760;9.156;2023-09-12T04:23:01;9.38;;;6.63;;
61458;SDS011;47324;48.760;9.156;2023-09-12T04:25:47;13.18;;;8.07;;
61458;SDS011;47324;48.760;9.156;2023-09-12T04:28:31;13.25;;;6.82;;
61458;SDS011;47324;48.760;9.156;2023-09-12T04:31:16;13.25;;;6.65;;
61458;SDS011;47324;48.760;9.156;2023-09-12T04:34:00;9.65;;;6.45;;
61458;SDS011;47324;48.760;9.156;2023-09-12T04:36:44;10.82;;;7.18;;
61458;SDS011;47324;48.760;9.156;2023-09-12T04:39:29;12.35;;;7.10;;
61458;SDS011;47324;48.760;9.156;2023-09-12T04:42:14;17.00;;;7.60;;
61458;SDS011;47324;48.760;9.156;2023-09-12T04:44:59;13.10;;;8.05;;
61458;SDS011;47324;48.760;9.156;2023-09-12T04:47:43;8.77;;;6.60;;
61458;SDS011;47324;48.760;9.156;2023-09-12T04:50:27;15.93;;;7.40;;
61458;SDS011;47324;48.760;9.156;2023-09-12T04:53:12;10.27;;;7.13;;
61458;SDS011;47324;48.760;9.156;2023-09-12T04:55:56;8.73;;;6.88;;
61458;SDS011;47324;48.760;9.156;2023-09-12T04:58:40;11.30;;;7.63;;
61458;SDS011;47324;48.760;9.156;2023-09-12T05:01:24;11.63;;;7.05;;
61458;SDS011;47324;48.760;9.156;2023-09-12T05:04:09;13.50;;;7.68;;
61458;SDS011;47324;48.760;9.156;2023-09-12T05:06:54;11.25;;;7.50;;
61458;SDS011;47324;48.760;9.156;2023-09-12T05:09:38;11.85;;;7.82;;
61458;SDS011;47324;48.760;9.156;2023-09-12T05:12:22;13.88;;;7.25;;
61458;SDS011;47324;48.760;9.156;2023-09-12T05:15:07;10.43;;;6.95;;
61458;SDS011;47324;48.760;9.156;2023-09-12T05:17:51;11.02;;;7.30;;
61458;SDS011;47324;48.760;9.156;2023-09-12T05:20:35;11.52;;;7.53;;
61458;SDS011;47324;48.760;9.156;2023-09-12T05:23:19;15.90;;;7.75;;
61458;SDS011;47324;48.760;9.156;2023-09-12T05:26:04;11.70;;;7.70;;
61458;SDS011;47324;48.760;9.156;2023-09-12T05:28:48;13.88;;;7.03;;
61458;SDS011;47324;48.760;9.156;2023-09-12T05:31:33;13.57;;;8.00;;
61458;SDS011;47324;48.760;9.156;2023-09-12T05:34:18;13.07;;;7.20;;
61458;SDS011;47324;48.760;9.156;2023-09-12T05:37:02;11.88;;;7.20;;
61458;SDS011;47324;48.760;9.156;2023-09-12T05:39:48;12.80;;;7.57;;
61458;SDS011;47324;48.760;9.156;2023-09-12T05:42:32;17.73;;;7.85;;
61458;SDS011;47324;48.760;9.156;2023-09-12T05:45:17;13.02;;;6.65;;
61458;SDS011;47324;48.760;9.156;2023-09-12T05:48:01;12.10;;;7.40;;
61458;SDS011;47324;48.760;9.156;2023-09-12T05:50:45;11.63;;;6.55;;
61458;SDS011;47324;48.760;9.156;2023-09-12T05:53:30;9.93;;;6.70;;
61458;SDS011;47324;48.760;9.156;2023-09-12T05:56:14;12.07;;;7.75;;
61458;SDS011;47324;48.760;9.156;2023-09-12T05:58:59;9.90;;;6.72;;
61458;SDS011;47324;48.760;9.156;2023-09-12T06:01:43;12.43;;;6.78;;
61458;SDS011;47324;48.760;9.156;2023-09-12T06:04:27;11.35;;;7.60;;
61458;SDS011;47324;48.760;9.156;2023-09-12T06:07:12;10.68;;;6.93;;
61458;SDS011;47324;48.760;9.156;2023-09-12T06:09:56;15.27;;;8.68;;
61458;SDS011;47324;48.760;9.156;2023-09-12T06:12:41;13.90;;;8.02;;
61458;SDS011;47324;48.760;9.156;2023-09-12T06:15:25;11.05;;;7.80;;
61458;SDS011;47324;48.760;9.156;2023-09-12T06:18:09;11.38;;;7.30;;
61458;SDS011;47324;48.760;9.156;2023-09-12T06:20:54;11.07;;;8.05;;
61458;SDS011;47324;48.760;9.156;2023-09-12T06:23:38;13.40;;;6.85;;
61458;SDS011;47324;48.760;9.156;2023-09-12T06:26:22;9.63;;;6.70;;
61458;SDS011;47324;48.760;9.156;2023-09-12T06:29:07;15.50;;;8.05;;
61458;SDS011;47324;48.760;9.156;2023-09-12T06:31:51;14.07;;;6.68;;
61458;SDS011;47324;48.760;9.156;2023-09-12T06:34:35;10.52;;;7.03;;
61458;SDS011;47324;48.760;9.156;2023-09-12T06:37:19;10.25;;;7.10;;
61458;SDS011;47324;48.760;9.156;2023-09-12T06:40:04;11.57;;;7.75;;
61458;SDS011;47324;48.760;9.156;2023-09-12T06:42:48;8.98;;;6.97;;
61458;SDS011;47324;48.760;9.156;2023-09-12T06:45:33;11.90;;;7.28;;
61458;SDS011;47324;48.760;9.156;2023-09-12T06:48:19;15.90;;;7.22;;
61458;SDS011;47324;48.760;9.156;2023-09-12T06:51:08;11.63;;;7.72;;
61458;SDS011;47324;48.760;9.156;2023-09-12T06:53:52;11.40;;;6.68;;
61458;SDS011;47324;48.760;9.156;2023-09-12T06:56:37;8.85;;;6.65;;
61458;SDS011;47324;48.760;9.156;2023-09-12T06:59:26;12.23;;;7.28;;
61458;SDS011;47324;48.760;9.156;2023-09-12T07:02:10;15.25;;;7.10;;
61458;SDS011;47324;48.760;9.156;2023-09-12T07:04:56;11.98;;;7.10;;
61458;SDS011;47324;48.760;9.156;2023-09-12T07:07:41;10.05;;;6.57;;
61458;SDS011;47324;48.760;9.156;2023-09-12T07:10:26;16.02;;;7.35;;
61458;SDS011;47324;48.760;9.156;2023-09-12T07:13:11;10.77;;;6.93;;
61458;SDS011;47324;48.760;9.156;2023-09-12T07:15:56;9.23;;;6.30;;
61458;SDS011;47324;48.760;9.156;2023-09-12T07:18:40;10.55;;;6.47;;
61458;SDS011;47324;48.760;9.156;2023-09-12T07:21:24;12.90;;;5.63;;
61458;SDS011;47324;48.760;9.156;2023-09-12T07:24:09;10.43;;;6.45;;
61458;SDS011;47324;48.760;9.156;2023-09-12T07:26:53;8.13;;;5.95;;
61458;SDS011;47324;48.760;9.156;2023-09-12T07:29:38;11.52;;;6.65;;
61458;SDS011;47324;48.760;9.156;2023-09-12T07:32:22;10.18;;;6.45;;
61458;SDS011;47324;48.760;9.156;2023-09-12T07:35:08;12.68;;;7.32;;
61458;SDS011;47324;48.760;9.156;2023-09-12T07:37:52;10.70;;;6.45;;
61458;SDS011;47324;48.760;9.156;2023-09-12T07:40:37;12.27;;;7.25;;
61458;SDS011;47324;48.760;9.156;2023-09-12T07:43:21;12.45;;;6.95;;
61458;SDS011;47324;48.760;9.156;2023-09-12T07:46:05;11.50;;;7.25;;
61458;SDS011;47324;48.760;9.156;2023-09-12T07:48:50;11.63;;;6.93;;
61458;SDS011;47324;48.760;9.156;2023-09-12T07:51:35;12.32;;;6.43;;
61458;SDS011;47324;48.760;9.156;2023-09-12T07:54:18;11.02;;;7.47;;
61458;SDS011;47324;48.760;9.156;2023-09-12T07:57:02;14.23;;;7.50;;
61458;SDS011;47324;48.760;9.156;2023-09-12T07:59:47;13.95;;;7.10;;
61458;SDS011;47324;48.760;9.156;2023-09-12T08:02:31;15.00;;;7.57;;
61458;SDS011;47324;48.760;9.156;2023-09-12T08:05:16;12.88;;;7.30;;
61458;SDS011;47324;48.760;9.156;2023-09-12T08:08:00;9.18;;;6.35;;
61458;SDS011;47324;48.760;9.156;2023-09-12T08:10:45;15.35;;;7.65;;
61458;SDS011;47324;48.760;9.156;2023-09-12T08:13:30;10.60;;;6.95;;
61458;SDS011;47324;48.760;9.156;2023-09-12T08:16:15;11.23;;;6.95;;
61458;SDS011;47324;48.760;9.156;2023-09-12T08:19:00;12.77;;;7.75;;
61458;SDS011;47324;48.760;9.156;2023-09-12T08:21:44;12.45;;;7.38;;
61458;SDS011;47324;48.760;9.156;2023-09-12T08:24:29;9.57;;;6.95;;
61458;SDS011;47324;48.760;9.156;2023-09-12T08:27:14;13.40;;;6.90;;
61458;SDS011;47324;48.760;9.156;2023-09-12T08:29:58;12.35;;;6.53;;
61458;SDS011;47324;48.760;9.156;2023-09-12T08:32:42;12.68;;;6.75;;
61458;SDS011;47324;48.760;9.156;2023-09-12T08:35:29;12.35;;;6.35;;
61458;SDS011;47324;48.760;9.156;2023-09-12T08:38:14;11.27;;;6.70;;
61458;SDS011;47324;48.760;9.156;2023-09-12T08:40:59;10.38;;;7.13;;
61458;SDS011;47324;48.760;9.156;2023-09-12T08:43:43;11.85;;;7.20;;
61458;SDS011;47324;48.760;9.156;2023-09-12T08:46:29;8.32;;;6.07;;
61458;SDS011;47324;48.760;9.156;2023-09-12T08:49:14;11.45;;;6.20;;
61458;SDS011;47324;48.760;9.156;2023-09-12T08:51:59;11.63;;;6.72;;
61458;SDS011;47324;48.760;9.156;2023-09-12T08:54:43;13.05;;;7.25;;
61458;SDS011;47324;48.760;9.156;2023-09-12T08:57:28;12.32;;;7.53;;
61458;SDS011;47324;48.760;9.156;2023-09-12T09:00:13;11.32;;;7.68;;
61458;SDS011;47324;48.760;9.156;2023-09-12T09:02:58;9.60;;;6.32;;
61458;SDS011;47324;48.760;9.156;2023-09-12T09:05:42;10.63;;;7.15;;
61458;SDS011;47324;48.760;9.156;2023-09-12T09:08:28;12.95;;;5.90;;
61458;SDS011;47324;48.760;9.156;2023-09-12T09:11:12;13.38;;;7.15;;
61458;SDS011;47324;48.760;9.156;2023-09-12T09:13:57;9.85;;;6.72;;
61458;SDS011;47324;48.760;9.156;2023-09-12T09:16:40;10.85;;;5.97;;
61458;SDS011;47324;48.760;9.156;2023-09-12T09:19:39;13.15;;;7.13;;
61458;SDS011;47324;48.760;9.156;2023-09-12T09:22:24;10.85;;;6.35;;
61458;SDS011;47324;48.760;9.156;2023-09-12T09:25:11;9.30;;;6.45;;
61458;SDS011;47324;48.760;9.156;2023-09-12T09:27:56;9.25;;;6.53;;
61458;SDS011;47324;48.760;9.156;2023-09-12T09:30:41;10.02;;;6.22;;
61458;SDS011;47324;48.760;9.156;2023-09-12T09:33:26;8.85;;;5.82;;
61458;SDS011;47324;48.760;9.156;2023-09-12T09:36:12;10.70;;;5.90;;
61458;SDS011;47324;48.760;9.156;2023-09-12T09:38:59;11.50;;;5.57;;
61458;SDS011;47324;48.760;9.156;2023-09-12T09:41:49;14.23;;;7.05;;
61458;SDS011;47324;48.760;9.156;2023-09-12T09:44:34;9.30;;;5.82;;
61458;SDS011;47324;48.760;9.156;2023-09-12T09:47:18;9.00;;;5.50;;
61458;SDS011;47324;48.760;9.156;2023-09-12T09:50:04;13.10;;;6.45;;
61458;SDS011;47324;48.760;9.156;2023-09-12T09:52:52;8.23;;;5.65;;
61458;SDS011;47324;48.760;9.156;2023-09-12T09:55:37;8.15;;;5.22;;
61458;SDS011;47324;48.760;9.156;2023-09-12T09:58:22;8.43;;;5.65;;
61458;SDS011;47324;48.760;9.156;2023-09-12T10:01:07;10.93;;;6.18;;
61458;SDS011;47324;48.760;9.156;2023-09-12T10:03:57;9.45;;;5.47;;
61458;SDS011;47324;48.760;9.156;2023-09-12T10:06:42;7.93;;;5.60;;
61458;SDS011;47324;48.760;9.156;2023-09-12T10:09:27;9.20;;;5.43;;
61458;SDS011;47324;48.760;9.156;2023-09-12T10:12:12;12.93;;;5.70;;
61458;SDS011;47324;48.760;9.156;2023-09-12T10:14:57;9.68;;;6.28;;
61458;SDS011;47324;48.760;9.156;2023-09-12T10:17:42;8.77;;;6.20;;
61458;SDS011;47324;48.760;9.156;2023-09-12T10:20:33;13.02;;;6.88;;
61458;SDS011;47324;48.760;9.156;2023-09-12T10:23:19;9.88;;;5.88;;
61458;SDS011;47324;48.760;9.156;2023-09-12T10:26:05;12.23;;;6.78;;
61458;SDS011;47324;48.760;9.156;2023-09-12T10:28:50;10.55;;;5.85;;
61458;SDS011;47324;48.760;9.156;2023-09-12T10:31:34;13.13;;;6.30;;
61458;SDS011;47324;48.760;9.156;2023-09-12T10:34:21;10.88;;;5.82;;
61458;SDS011;47324;48.760;9.156;2023-09-12T10:37:08;8.38;;;5.95;;
61458;SDS011;47324;48.760;9.156;2023-09-12T10:39:53;12.45;;;6.20;;
61458;SDS011;47324;48.760;9.156;2023-09-12T10:42:37;11.52;;;6.32;;
61458;SDS011;47324;48.760;9.156;2023-09-12T10:45:23;11.80;;;6.15;;
61458;SDS011;47324;48.760;9.156;2023-09-12T10:48:09;12.27;;;6.47;;
61458;SDS011;47324;48.760;9.156;2023-09-12T10:50:55;8.80;;;5.63;;
61458;SDS011;47324;48.760;9.156;2023-09-12T10:53:44;9.63;;;6.05;;
61458;SDS011;47324;48.760;9.156;2023-09-12T10:56:30;12.40;;;5.93;;
61458;SDS011;47324;48.760;9.156;2023-09-12T10:59:16;9.18;;;5.43;;
61458;SDS011;47324;48.760;9.156;2023-09-12T11:05:34;11.20;;;7.00;;
61458;SDS011;47324;48.760;9.156;2023-09-12T11:08:11;9.68;;;5.85;;
61458;SDS011;47324;48.760;9.156;2023-09-12T11:14:07;10.10;;;6.75;;
61458;SDS011;47324;48.760;9.156;2023-09-12T11:19:52;9.93;;;5.80;;
61458;SDS011;47324;48.760;9.156;2023-09-12T11:22:38;10.52;;;5.72;;
61458;SDS011;47324;48.760;9.156;2023-09-12T11:25:26;9.65;;;5.75;;
61458;SDS011;47324;48.760;9.156;2023-09-12T11:28:10;13.45;;;5.75;;
61458;SDS011;47324;48.760;9.156;2023-09-12T11:30:56;8.32;;;5.72;;
61458;SDS011;47324;48.760;9.156;2023-09-12T11:33:41;7.90;;;5.78;;
61458;SDS011;47324;48.760;9.156;2023-09-12T11:36:25;8.40;;;5.45;;
61458;SDS011;47324;48.760;9.156;2023-09-12T11:39:22;8.52;;;5.20;;
61458;SDS011;47324;48.760;9.156;2023-09-12T11:42:09;7.47;;;5.15;;
61458;SDS011;47324;48.760;9.156;2023-09-12T11:44:55;9.27;;;5.38;;
61458;SDS011;47324;48.760;9.156;2023-09-12T11:47:42;12.52;;;6.35;;
61458;SDS011;47324;48.760;9.156;2023-09-12T11:50:31;12.13;;;5.90;;
61458;SDS011;47324;48.760;9.156;2023-09-12T11:53:18;8.88;;;5.00;;
61458;SDS011;47324;48.760;9.156;2023-09-12T11:56:03;16.30;;;6.75;;
61458;SDS011;47324;48.760;9.156;2023-09-12T11:58:48;10.00;;;6.55;;
61458;SDS011;47324;48.760;9.156;2023-09-12T12:01:33;8.25;;;5.82;;
61458;SDS011;47324;48.760;9.156;2023-09-12T12:04:17;8.32;;;5.00;;
61458;SDS011;47324;48.760;9.156;2023-09-12T12:07:04;12.32;;;5.60;;
61458;SDS011;47324;48.760;9.156;2023-09-12T12:09:49;11.77;;;5.90;;
61458;SDS011;47324;48.760;9.156;2023-09-12T12:12:34;9.15;;;5.35;;
61458;SDS011;47324;48.760;9.156;2023-09-12T12:15:21;10.18;;;4.75;;
61458;SDS011;47324;48.760;9.156;2023-09-12T12:18:06;7.55;;;4.93;;
61458;SDS011;47324;48.760;9.156;2023-09-12T12:20:50;11.30;;;6.05;;
61458;SDS011;47324;48.760;9.156;2023-09-12T12:23:35;9.82;;;5.38;;
61458;SDS011;47324;48.760;9.156;2023-09-12T12:26:19;9.60;;;5.80;;
61458;SDS011;47324;48.760;9.156;2023-09-12T12:29:04;6.72;;;4.65;;
61458;SDS011;47324;48.760;9.156;2023-09-12T12:31:49;7.15;;;5.22;;
61458;SDS011;47324;48.760;9.156;2023-09-12T12:34:33;7.60;;;5.20;;
61458;SDS011;47324;48.760;9.156;2023-09-12T12:37:17;7.70;;;4.63;;
61458;SDS011;47324;48.760;9.156;2023-09-12T12:40:02;8.43;;;5.03;;
61458;SDS011;47324;48.760;9.156;2023-09-12T12:42:47;10.30;;;5.03;;
61458;SDS011;47324;48.760;9.156;2023-09-12T12:45:32;6.07;;;3.97;;
61458;SDS011;47324;48.760;9.156;2023-09-12T12:48:16;8.35;;;5.22;;
61458;SDS011;47324;48.760;9.156;2023-09-12T12:51:12;12.60;;;5.47;;
61458;SDS011;47324;48.760;9.156;2023-09-12T12:54:03;10.27;;;5.80;;
61458;SDS011;47324;48.760;9.156;2023-09-12T12:56:47;11.00;;;4.90;;
61458;SDS011;47324;48.760;9.156;2023-09-12T12:59:31;7.53;;;5.38;;
61458;SDS011;47324;48.760;9.156;2023-09-12T13:02:20;11.18;;;5.28;;
61458;SDS011;47324;48.760;9.156;2023-09-12T13:05:06;9.55;;;4.88;;
61458;SDS011;47324;48.760;9.156;2023-09-12T13:07:52;9.70;;;4.28;;
61458;SDS011;47324;48.760;9.156;2023-09-12T13:10:37;7.07;;;4.25;;
61458;SDS011;47324;48.760;9.156;2023-09-12T13:13:22;13.10;;;4.68;;
61458;SDS011;47324;48.760;9.156;2023-09-12T13:16:08;6.55;;;3.70;;
61458;SDS011;47324;48.760;9.156;2023-09-12T13:18:53;8.57;;;4.93;;
61458;SDS011;47324;48.760;9.156;2023-09-12T13:21:37;11.23;;;4.82;;
61458;SDS011;47324;48.760;9.156;2023-09-12T13:24:22;6.82;;;4.60;;
61458;SDS011;47324;48.760;9.156;2023-09-12T13:27:07;9.23;;;5.20;;
61458;SDS011;47324;48.760;9.156;2023-09-12T13:29:51;8.52;;;3.88;;
61458;SDS011;47324;48.760;9.156;2023-09-12T13:32:35;9.02;;;4.05;;
61458;SDS011;47324;48.760;9.156;2023-09-12T13:35:20;10.13;;;4.10;;
61458;SDS011;47324;48.760;9.156;2023-09-12T13:38:04;8.05;;;4.07;;
61458;SDS011;47324;48.760;9.156;2023-09-12T13:40:53;8.00;;;4.63;;
61458;SDS011;47324;48.760;9.156;2023-09-12T13:43:38;7.75;;;4.13;;
61458;SDS011;47324;48.760;9.156;2023-09-12T13:46:22;8.82;;;4.35;;
61458;SDS011;47324;48.760;9.156;2023-09-12T13:49:06;10.00;;;4.50;;
61458;SDS011;47324;48.760;9.156;2023-09-12T13:51:51;7.13;;;3.92;;
61458;SDS011;47324;48.760;9.156;2023-09-12T13:54:35;8.23;;;4.28;;
61458;SDS011;47324;48.760;9.156;2023-09-12T13:57:21;14.02;;;4.47;;
61458;SDS011;47324;48.760;9.156;2023-09-12T14:00:05;8.98;;;4.95;;
61458;SDS011;47324;48.760;9.156;2023-09-12T14:02:50;8.93;;;4.53;;
61458;SDS011;47324;48.760;9.156;2023-09-12T14:05:34;7.78;;;4.30;;
61458;SDS011;47324;48.760;9.156;2023-09-12T14:08:19;10.00;;;4.85;;
61458;SDS011;47324;48.760;9.156;2023-09-12T14:11:03;9.45;;;4.57;;
61458;SDS011;47324;48.760;9.156;2023-09-12T14:13:48;9.77;;;4.97;;
61458;SDS011;47324;48.760;9.156;2023-09-12T14:16:32;8.65;;;4.97;;
61458;SDS011;47324;48.760;9.156;2023-09-12T14:19:16;8.60;;;5.05;;
61458;SDS011;47324;48.760;9.156;2023-09-12T14:22:01;7.32;;;4.90;;
61458;SDS011;47324;48.760;9.156;2023-09-12T14:24:45;7.63;;;5.07;;
61458;SDS011;47324;48.760;9.156;2023-09-12T14:27:29;7.35;;;4.45;;
61458;SDS011;47324;48.760;9.156;2023-09-12T14:30:14;10.13;;;5.40;;
61458;SDS011;47324;48.760;9.156;2023-09-12T14:32:59;7.57;;;5.38;;
61458;SDS011;47324;48.760;9.156;2023-09-12T14:35:43;8.00;;;4.68;;
61458;SDS011;47324;48.760;9.156;2023-09-12T14:38:27;9.23;;;4.97;;
61458;SDS011;47324;48.760;9.156;2023-09-12T14:41:12;10.73;;;4.95;;
61458;SDS011;47324;48.760;9.156;2023-09-12T14:43:58;11.80;;;5.72;;
61458;SDS011;47324;48.760;9.156;2023-09-12T14:46:42;6.90;;;4.93;;
61458;SDS011;47324;48.760;9.156;2023-09-12T14:49:27;10.70;;;4.72;;
61458;SDS011;47324;48.760;9.156;2023-09-12T14:52:12;6.57;;;4.68;;
61458;SDS011;47324;48.760;9.156;2023-09-12T14:54:56;13.88;;;5.70;;
61458;SDS011;47324;48.760;9.156;2023-09-12T14:57:42;8.57;;;4.63;;
61458;SDS011;47324;48.760;9.156;2023-09-12T15:00:26;8.63;;;5.38;;
61458;SDS011;47324;48.760;9.156;2023-09-12T15:03:11;6.07;;;4.28;;
61458;SDS011;47324;48.760;9.156;2023-09-12T15:05:56;6.20;;;4.43;;
61458;SDS011;47324;48.760;9.156;2023-09-12T15:08:44;9.43;;;5.57;;
61458;SDS011;47324;48.760;9.156;2023-09-12T15:11:30;8.10;;;5.13;;
61458;SDS011;47324;48.760;9.156;2023-09-12T15:14:15;7.00;;;5.00;;
61458;SDS011;47324;48.760;9.156;2023-09-12T15:17:01;10.77;;;5.20;;
61458;SDS011;47324;48.760;9.156;2023-09-12T15:19:45;13.88;;;5.03;;
61458;SDS011;47324;48.760;9.156;2023-09-12T15:22:30;6.65;;;5.13;;
61458;SDS011;47324;48.760;9.156;2023-09-12T15:25:15;6.82;;;4.90;;
61458;SDS011;47324;48.760;9.156;2023-09-12T15:27:59;8.52;;;4.95;;
61458;SDS011;47324;48.760;9.156;2023-09-12T15:30:43;6.30;;;4.28;;
61458;SDS011;47324;48.760;9.156;2023-09-12T15:33:28;8.90;;;5.20;;
61458;SDS011;47324;48.760;9.156;2023-09-12T15:36:12;8.50;;;4.70;;
61458;SDS011;47324;48.760;9.156;2023-09-12T15:38:56;6.93;;;4.50;;
61458;SDS011;47324;48.760;9.156;2023-09-12T15:41:42;10.15;;;4.88;;
61458;SDS011;47324;48.760;9.156;2023-09-12T15:44:26;6.32;;;4.40;;
61458;SDS011;47324;48.760;9.156;2023-09-12T15:47:10;8.02;;;4.00;;
61458;SDS011;47324;48.760;9.156;2023-09-12T15:49:54;9.15;;;3.97;;
61458;SDS011;47324;48.760;9.156;2023-09-12T15:52:40;8.05;;;3.58;;
61458;SDS011;47324;48.760;9.156;2023-09-12T15:55:25;7.70;;;4.18;;
61458;SDS011;47324;48.760;9.156;2023-09-12T15:58:09;9.23;;;3.92;;
61458;SDS011;47324;48.760;9.156;2023-09-12T16:00:53;7.03;;;4.20;;
61458;SDS011;47324;48.760;9.156;2023-09-12T16:03:39;7.38;;;4.43;;
61458;SDS011;47324;48.760;9.156;2023-09-12T16:06:23;8.23;;;4.65;;
61458;SDS011;47324;48.760;9.156;2023-09-12T16:09:07;11.27;;;5.15;;
61458;SDS011;47324;48.760;9.156;2023-09-12T16:11:53;7.28;;;5.00;;
61458;SDS011;47324;48.760;9.156;2023-09-12T16:14:37;10.35;;;4.00;;
61458;SDS011;47324;48.760;9.156;2023-09-12T16:17:24;9.43;;;4.75;;
61458;SDS011;47324;48.760;9.156;2023-09-12T16:20:09;7.93;;;4.72;;
61458;SDS011;47324;48.760;9.156;2023-09-12T16:22:54;9.40;;;4.53;;
61458;SDS011;47324;48.760;9.156;2023-09-12T16:25:38;11.48;;;5.40;;
